This is the latest recevied weather packets stored in our database for station/object LRCV. If no packets are shown the sender has not sent any weather packets the latest 10 day(s).
| Time | Temp. | Humidity | Pressure | Rain* | Wind** | Luminosity | Snow |
|---|---|---|---|---|---|---|---|
| 1777973621 | 23.89° C | 39% | 1016 hPa | - | - | - | - |
| 1777972721 | 22.78° C | 41% | 1016 hPa | - | - | - | - |
| 1777971821 | 22.78° C | 41% | 1016 hPa | - | - | - | - |
| 1777970922 | 22.22° C | 41% | 1016 hPa | - | - | - | - |
| 1777970022 | 22.22° C | 41% | 1016 hPa | - | - | - | - |
| 1777969122 | 22.22° C | 41% | 1016 hPa | - | - | - | - |
| 1777968222 | 22.22° C | 41% | 1016 hPa | - | - | - | - |
| 1777967342 | 21.11° C | 43% | 1016 hPa | - | - | - | - |
| 1777966421 | 21.11° C | 43% | 1016 hPa | - | - | - | - |
| 1777965521 | 21.11° C | 43% | 1016 hPa | - | - | - | - |
| 1777964621 | 21.11° C | 43% | 1016 hPa | - | - | - | - |
| 1777963721 | 17.78° C | 64% | 1016 hPa | - | - | - | - |
| 1777962822 | 17.78° C | 64% | 1016 hPa | - | - | - | - |
| 1777961922 | 16.11° C | 68% | 1016 hPa | - | - | - | - |
| 1777961022 | 16.11° C | 68% | 1016 hPa | - | - | - | - |
| 1777960121 | 12.78° C | 77% | 1016 hPa | - | - | - | - |
| 1777959222 | 12.78° C | 77% | 1016 hPa | - | - | - | - |
| 1777958321 | 12.22° C | 82% | 1016 hPa | - | - | - | - |
| 1777957421 | 12.22° C | 82% | 1016 hPa | - | - | - | - |
| 1777956521 | 11.11° C | 82% | 1016 hPa | - | - | - | - |
| 1777955621 | 11.11° C | 82% | 1016 hPa | - | - | - | - |
| 1777954722 | 10° C | 88% | 1016 hPa | - | - | - | - |
| 1777953821 | 10° C | 88% | 1016 hPa | - | - | - | - |
| 1777952921 | 7.22° C | 93% | 1016 hPa | - | - | - | - |
| 1777952021 | 7.22° C | 93% | 1016 hPa | - | - | - | - |
* Rain since midnight (hover to see other rain measurements)
** Current wind speed in m/s (hover to see current wind gust speed)